createdAt,value
2018-01-14T00:00:25.855Z,98773.52
2018-01-14T00:00:57.430Z,98777.78
2018-01-14T00:01:29.019Z,98776.97
2018-01-14T00:02:00.598Z,98779.16
2018-01-14T00:02:32.195Z,98780.00
2018-01-14T00:03:03.827Z,98779.58
2018-01-14T00:03:35.410Z,98774.92
2018-01-14T00:04:06.991Z,98776.30
2018-01-14T00:04:38.567Z,98777.15
2018-01-14T00:05:10.150Z,98778.48
2018-01-14T00:05:41.730Z,98778.52
2018-01-14T00:06:13.391Z,98784.56
2018-01-14T00:06:44.966Z,98778.64
2018-01-14T00:07:16.551Z,98775.61
2018-01-14T00:07:48.363Z,98775.66
2018-01-14T00:08:19.979Z,98771.01
2018-01-14T00:08:51.561Z,98772.28
2018-01-14T00:09:23.184Z,98779.53
2018-01-14T00:09:54.758Z,98775.73
2018-01-14T00:10:26.338Z,98777.44
2018-01-14T00:10:57.939Z,98775.34
2018-01-14T00:11:29.523Z,98774.92
2018-01-14T00:12:01.103Z,98775.35
2018-01-14T00:12:32.679Z,98775.78
2018-01-14T00:13:04.251Z,98772.02
2018-01-14T00:13:35.826Z,98776.71
2018-01-14T00:14:07.403Z,98776.28
2018-01-14T00:14:39.021Z,98779.27
2018-01-14T00:15:10.598Z,98781.83
2018-01-14T00:15:42.219Z,98780.09
2018-01-14T00:16:13.799Z,98777.52
2018-01-14T00:16:45.383Z,98770.81
2018-01-14T00:17:16.958Z,98773.37
2018-01-14T00:17:48.539Z,98775.94
2018-01-14T00:18:20.119Z,98774.23
2018-01-14T00:18:51.699Z,98780.20
2018-01-14T00:19:23.283Z,98773.84
2018-01-14T00:19:54.863Z,98778.14
2018-01-14T00:20:26.439Z,98779.03
2018-01-14T00:20:58.047Z,98779.50
2018-01-14T00:21:29.623Z,98773.50
2018-01-14T00:22:01.198Z,98772.68
2018-01-14T00:22:32.806Z,98772.72
2018-01-14T00:23:04.388Z,98776.55
2018-01-14T00:23:35.970Z,98779.12
2018-01-14T00:24:07.551Z,98776.98
2018-01-14T00:24:39.131Z,98771.88
2018-01-14T00:25:10.711Z,98771.91
2018-01-14T00:25:42.327Z,98771.52
2018-01-14T00:26:13.903Z,98775.36
2018-01-14T00:26:45.479Z,98771.95
2018-01-14T00:27:17.054Z,98774.97
2018-01-14T00:27:48.662Z,98776.70
2018-01-14T00:28:20.244Z,98772.88
2018-01-14T00:28:51.818Z,98769.92
2018-01-14T00:29:23.390Z,98773.76
2018-01-14T00:29:54.967Z,98774.19
2018-01-14T00:30:26.555Z,98772.05
2018-01-14T00:30:58.135Z,98774.25
2018-01-14T00:31:29.711Z,98775.54
2018-01-14T00:32:01.295Z,98773.41
2018-01-14T00:32:32.870Z,98776.42
2018-01-14T00:33:04.478Z,98776.42
2018-01-14T00:33:36.091Z,98776.85
2018-01-14T00:34:07.676Z,98771.77
2018-01-14T00:34:39.252Z,98773.91
2018-01-14T00:35:10.827Z,98773.05
2018-01-14T00:35:42.407Z,98776.92
2018-01-14T00:36:14.022Z,98771.41
2018-01-14T00:36:45.598Z,98769.28
2018-01-14T00:37:17.179Z,98767.19
2018-01-14T00:37:48.758Z,98773.16
2018-01-14T00:38:20.383Z,98773.16
2018-01-14T00:38:51.959Z,98773.58
2018-01-14T00:39:23.534Z,98771.91
2018-01-14T00:39:55.115Z,98778.73
2018-01-14T00:40:26.695Z,98773.19
2018-01-14T00:40:58.275Z,98772.37
2018-01-14T00:41:29.855Z,98768.53
2018-01-14T00:42:01.437Z,98771.52
2018-01-14T00:42:33.018Z,98773.65
2018-01-14T00:43:04.599Z,98775.38
2018-01-14T00:43:36.223Z,98780.11
2018-01-14T00:44:07.802Z,98773.29
2018-01-14T00:44:39.379Z,98776.27
2018-01-14T00:45:10.959Z,98777.55
2018-01-14T00:45:42.535Z,98775.84
2018-01-14T00:46:14.107Z,98776.30
2018-01-14T00:46:45.682Z,98774.56
2018-01-14T00:47:17.263Z,98775.45
2018-01-14T00:47:48.839Z,98771.61
2018-01-14T00:48:20.414Z,98772.50
2018-01-14T00:48:52.030Z,98772.93
2018-01-14T00:49:23.607Z,98775.48
2018-01-14T00:49:55.187Z,98776.76
2018-01-14T00:50:26.762Z,98772.95
2018-01-14T00:50:58.343Z,98772.96
2018-01-14T00:51:29.928Z,98778.08
2018-01-14T00:52:01.502Z,98775.91
2018-01-14T00:52:33.075Z,98771.69
2018-01-14T00:53:04.655Z,98776.80
2018-01-14T00:53:36.231Z,98771.69
2018-01-14T00:54:07.804Z,98767.84
2018-01-14T00:54:39.386Z,98766.14
2018-01-14T00:55:10.967Z,98773.78
2018-01-14T00:55:42.547Z,98769.09
2018-01-14T00:56:14.166Z,98774.17
2018-01-14T00:56:45.742Z,98773.75
2018-01-14T00:57:17.323Z,98777.55
2018-01-14T00:57:48.899Z,98769.45
2018-01-14T00:58:20.474Z,98775.84
2018-01-14T00:58:52.051Z,98778.01
2018-01-14T00:59:23.626Z,98769.88
2018-01-14T00:59:55.207Z,98773.72
2018-01-14T01:00:26.789Z,98776.23
2018-01-14T01:00:58.378Z,98773.65
2018-01-14T01:01:29.960Z,98773.65
2018-01-14T01:02:01.534Z,98771.48
2018-01-14T01:02:33.114Z,98768.50
2018-01-14T01:03:04.695Z,98772.73
2018-01-14T01:03:36.271Z,98775.74
2018-01-14T01:04:07.847Z,98770.63
2018-01-14T01:04:39.426Z,98774.47
2018-01-14T01:05:11.007Z,98770.59
2018-01-14T01:05:42.583Z,98776.14
2018-01-14T01:06:14.163Z,98768.04
2018-01-14T01:06:45.771Z,98772.70
2018-01-14T01:07:17.355Z,98770.95
2018-01-14T01:07:48.930Z,98777.81
2018-01-14T01:08:20.502Z,98767.13
2018-01-14T01:08:52.079Z,98769.67
2018-01-14T01:09:23.694Z,98770.95
2018-01-14T01:09:55.270Z,98775.19
2018-01-14T01:10:26.847Z,98776.49
2018-01-14T01:10:58.427Z,98778.59
2018-01-14T01:11:29.998Z,98774.75
2018-01-14T01:12:01.615Z,98773.48
2018-01-14T01:12:33.191Z,98770.45
2018-01-14T01:13:04.772Z,98775.58
2018-01-14T01:13:36.351Z,98776.00
2018-01-14T01:14:07.927Z,98772.98
2018-01-14T01:14:39.507Z,98769.61
2018-01-14T01:15:11.095Z,98771.31
2018-01-14T01:15:42.675Z,98776.81
2018-01-14T01:16:14.283Z,98775.97
2018-01-14T01:16:45.898Z,98773.02
2018-01-14T01:17:17.488Z,98771.70
2018-01-14T01:17:49.067Z,98774.30
2018-01-14T01:18:20.643Z,98781.50
2018-01-14T01:18:52.222Z,98780.66
2018-01-14T01:19:23.799Z,98784.48
2018-01-14T01:19:55.374Z,98776.78
2018-01-14T01:20:26.951Z,98772.95
2018-01-14T01:20:58.559Z,98779.38
2018-01-14T01:21:30.175Z,98776.78
2018-01-14T01:22:01.759Z,98779.30
2018-01-14T01:22:33.336Z,98779.69
2018-01-14T01:23:04.919Z,98775.89
2018-01-14T01:23:36.495Z,98775.43
2018-01-14T01:24:08.075Z,98775.89
2018-01-14T01:24:39.656Z,98787.40
2018-01-14T01:25:11.234Z,98789.07
2018-01-14T01:25:42.811Z,98778.41
2018-01-14T01:26:14.525Z,98780.58
2018-01-14T01:26:46.110Z,98780.12
2018-01-14T01:27:17.688Z,98785.16
2018-01-14T01:27:49.271Z,98785.20
2018-01-14T01:28:20.851Z,98779.27
2018-01-14T01:28:52.426Z,98781.39
2018-01-14T01:29:24.007Z,98782.22
2018-01-14T01:29:55.586Z,98777.06
2018-01-14T01:30:27.167Z,98782.60
2018-01-14T01:30:58.746Z,98788.11
2018-01-14T01:31:30.363Z,98784.27
2018-01-14T01:32:01.997Z,98786.80
2018-01-14T01:32:33.583Z,98787.68
2018-01-14T01:33:05.163Z,98785.09
2018-01-14T01:33:36.742Z,98788.06
2018-01-14T01:34:08.319Z,98783.80
2018-01-14T01:34:39.899Z,98780.78
2018-01-14T01:35:11.475Z,98780.36
2018-01-14T01:35:43.050Z,98780.36
2018-01-14T01:36:14.630Z,98774.38
2018-01-14T01:36:46.207Z,98777.84
2018-01-14T01:37:17.826Z,98781.25
2018-01-14T01:37:49.403Z,98776.56
2018-01-14T01:38:20.978Z,98777.84
2018-01-14T01:38:52.550Z,98777.41
2018-01-14T01:39:24.123Z,98775.70
2018-01-14T01:39:55.702Z,98773.61
2018-01-14T01:40:27.287Z,98773.19
2018-01-14T01:40:58.866Z,98772.80
2018-01-14T01:41:30.448Z,98774.50
2018-01-14T01:42:02.024Z,98769.39
2018-01-14T01:42:33.647Z,98772.41
2018-01-14T01:43:05.227Z,98771.52
2018-01-14T01:43:36.807Z,98770.28
2018-01-14T01:44:08.383Z,98770.31
2018-01-14T01:44:39.958Z,98770.31
2018-01-14T01:45:11.535Z,98764.81
2018-01-14T01:45:43.115Z,98768.61
2018-01-14T01:46:14.690Z,98769.03
2018-01-14T01:46:46.262Z,98764.77
2018-01-14T01:47:17.857Z,98766.48
2018-01-14T01:47:49.474Z,98766.48
2018-01-14T01:48:21.050Z,98766.98
2018-01-14T01:48:52.633Z,98763.99
2018-01-14T01:49:24.207Z,98772.95
2018-01-14T01:49:55.786Z,98765.70
2018-01-14T01:50:27.394Z,98761.01
2018-01-14T01:50:58.971Z,98764.88
2018-01-14T01:51:30.551Z,98772.55
2018-01-14T01:52:02.143Z,98770.42
2018-01-14T01:52:33.727Z,98770.03
2018-01-14T01:53:05.302Z,98765.77
2018-01-14T01:53:36.882Z,98769.18
2018-01-14T01:54:08.459Z,98762.78
2018-01-14T01:54:40.035Z,98761.97
2018-01-14T01:55:11.615Z,98769.61
2018-01-14T01:55:43.235Z,98766.16
2018-01-14T01:56:14.819Z,98763.22
2018-01-14T01:56:46.391Z,98766.20
2018-01-14T01:57:17.966Z,98769.21
2018-01-14T01:57:49.546Z,98767.91
2018-01-14T01:58:21.125Z,98768.75
2018-01-14T01:58:52.699Z,98765.80
2018-01-14T01:59:24.274Z,98767.94
2018-01-14T01:59:55.856Z,98767.97
2018-01-14T02:00:27.430Z,98764.63
2018-01-14T02:00:59.039Z,98766.30
2018-01-14T02:01:30.623Z,98766.34
2018-01-14T02:02:02.202Z,98762.92
2018-01-14T02:02:33.774Z,98769.75
2018-01-14T02:03:05.347Z,98767.58
2018-01-14T02:03:36.927Z,98766.34
2018-01-14T02:04:08.507Z,98766.34
2018-01-14T02:04:40.087Z,98767.65
2018-01-14T02:05:11.667Z,98766.34
2018-01-14T02:05:43.247Z,98762.53
2018-01-14T02:06:14.855Z,98765.98
2018-01-14T02:06:46.436Z,98763.85
2018-01-14T02:07:18.011Z,98764.27
2018-01-14T02:07:49.586Z,98768.53
2018-01-14T02:08:21.167Z,98760.87
2018-01-14T02:08:52.742Z,98768.11
2018-01-14T02:09:24.326Z,98764.73
2018-01-14T02:09:55.907Z,98765.16
2018-01-14T02:10:27.487Z,98762.17
2018-01-14T02:10:59.103Z,98763.88
2018-01-14T02:11:30.710Z,98762.64
2018-01-14T02:12:02.293Z,98763.06
2018-01-14T02:12:33.875Z,98767.36
2018-01-14T02:13:05.447Z,98763.49
2018-01-14T02:13:37.027Z,98764.34
2018-01-14T02:14:08.602Z,98762.64
2018-01-14T02:14:40.215Z,98764.80
2018-01-14T02:15:11.824Z,98759.30
2018-01-14T02:15:43.404Z,98760.54
2018-01-14T02:16:14.983Z,98760.97
2018-01-14T02:16:46.554Z,98760.54
2018-01-14T02:17:18.135Z,98761.00
2018-01-14T02:17:49.747Z,98758.41
2018-01-14T02:18:21.330Z,98759.69
2018-01-14T02:18:52.938Z,98762.70
2018-01-14T02:19:24.520Z,98756.70
2018-01-14T02:19:56.099Z,98763.52
2018-01-14T02:20:27.675Z,98753.72
2018-01-14T02:20:59.254Z,98758.80
2018-01-14T02:21:30.835Z,98760.97
2018-01-14T02:22:02.415Z,98753.30
2018-01-14T02:22:33.994Z,98757.59
2018-01-14T02:23:05.578Z,98757.16
2018-01-14T02:23:37.203Z,98751.63
2018-01-14T02:24:08.775Z,98756.31
2018-01-14T02:24:40.354Z,98758.02
2018-01-14T02:25:11.927Z,98759.72
2018-01-14T02:25:43.507Z,98756.34
2018-01-14T02:26:15.082Z,98754.64
2018-01-14T02:26:46.667Z,98755.92
2018-01-14T02:27:18.268Z,98755.46
2018-01-14T02:27:49.852Z,98752.91
2018-01-14T02:28:21.430Z,98755.04
2018-01-14T02:28:53.051Z,98752.05
2018-01-14T02:29:24.645Z,98752.48
2018-01-14T02:29:56.245Z,98749.92
2018-01-14T02:30:27.856Z,98753.72
2018-01-14T02:30:59.506Z,98752.41
2018-01-14T02:31:31.114Z,98757.52
2018-01-14T02:32:02.695Z,98753.69
2018-01-14T02:32:34.279Z,98757.52
2018-01-14T02:33:05.858Z,98753.27
2018-01-14T02:33:37.444Z,98754.12
2018-01-14T02:34:09.027Z,98751.14
2018-01-14T02:34:40.603Z,98751.14
2018-01-14T02:35:12.178Z,98756.70
2018-01-14T02:35:43.759Z,98753.27
2018-01-14T02:36:15.334Z,98748.58
2018-01-14T02:36:46.911Z,98747.73
2018-01-14T02:37:18.487Z,98753.23
2018-01-14T02:37:50.067Z,98751.53
2018-01-14T02:38:21.647Z,98749.79
2018-01-14T02:38:53.266Z,98751.88
2018-01-14T02:39:24.846Z,98752.73
2018-01-14T02:39:56.435Z,98751.03
2018-01-14T02:40:28.015Z,98751.45
2018-01-14T02:40:59.591Z,98754.44
2018-01-14T02:41:31.219Z,98753.16
2018-01-14T02:42:02.794Z,98751.03
2018-01-14T02:42:34.375Z,98751.03
2018-01-14T02:43:05.951Z,98748.91
2018-01-14T02:43:37.567Z,98751.00
2018-01-14T02:44:09.239Z,98746.73
2018-01-14T02:44:40.827Z,98729.44
2018-01-14T02:45:12.414Z,98751.35
2018-01-14T02:45:43.986Z,98745.81
2018-01-14T02:46:15.571Z,98746.23
2018-01-14T02:46:47.178Z,98747.09
2018-01-14T02:47:18.755Z,98750.47
2018-01-14T02:47:50.335Z,98753.91
2018-01-14T02:48:21.911Z,98743.72
2018-01-14T02:48:53.487Z,98740.70
2018-01-14T02:49:25.066Z,98745.39
2018-01-14T02:49:56.643Z,98744.92
2018-01-14T02:50:28.227Z,98745.74
2018-01-14T02:50:59.839Z,98746.17
2018-01-14T02:51:31.415Z,98741.88
2018-01-14T02:52:03.003Z,98741.88
2018-01-14T02:52:34.575Z,98739.34
2018-01-14T02:53:06.151Z,98739.27
2018-01-14T02:53:37.734Z,98746.09
2018-01-14T02:54:09.343Z,98743.14
2018-01-14T02:54:40.919Z,98746.95
2018-01-14T02:55:12.499Z,98747.80
2018-01-14T02:55:44.111Z,98745.20
2018-01-14T02:56:15.686Z,98744.39
2018-01-14T02:56:47.268Z,98755.05
2018-01-14T02:57:18.847Z,98740.59
2018-01-14T02:57:50.419Z,98741.83
2018-01-14T02:58:21.998Z,98746.13
2018-01-14T02:58:53.574Z,98739.77
2018-01-14T02:59:25.147Z,98744.42
2018-01-14T02:59:56.766Z,98739.35
2018-01-14T03:00:28.347Z,98748.27
2018-01-14T03:00:59.927Z,98749.97
2018-01-14T03:01:31.506Z,98740.94
2018-01-14T03:02:03.122Z,98743.53
2018-01-14T03:02:34.698Z,98742.69
2018-01-14T03:03:06.274Z,98749.05
2018-01-14T03:03:37.846Z,98747.34
2018-01-14T03:04:09.418Z,98744.78
2018-01-14T03:04:40.990Z,98745.67
2018-01-14T03:05:12.567Z,98746.13
2018-01-14T03:05:44.151Z,98746.13
2018-01-14T03:06:15.731Z,98742.76
2018-01-14T03:06:47.311Z,98750.00
2018-01-14T03:07:18.918Z,98741.91
2018-01-14T03:07:50.495Z,98745.78
2018-01-14T03:08:22.075Z,98645.56
2018-01-14T03:08:53.655Z,98746.59
2018-01-14T03:09:25.230Z,98749.16
2018-01-14T03:09:56.807Z,98747.88
2018-01-14T03:10:28.389Z,98748.30
2018-01-14T03:10:59.967Z,98749.16
2018-01-14T03:11:31.542Z,98744.86
2018-01-14T03:12:03.166Z,98745.70
2018-01-14T03:12:34.742Z,98748.66
2018-01-14T03:13:06.318Z,98745.70
2018-01-14T03:13:37.895Z,98747.91
2018-01-14T03:14:09.470Z,98747.05
2018-01-14T03:14:41.051Z,98742.83
2018-01-14T03:15:12.634Z,98746.70
2018-01-14T03:15:44.206Z,98740.34
2018-01-14T03:16:15.787Z,98742.44
2018-01-14T03:16:47.362Z,98747.52
2018-01-14T03:17:18.984Z,98738.61
2018-01-14T03:17:50.591Z,98742.87
2018-01-14T03:18:22.162Z,98746.31
2018-01-14T03:18:53.736Z,98749.30
2018-01-14T03:19:25.319Z,98745.45
2018-01-14T03:19:56.899Z,98748.87
2018-01-14T03:20:28.480Z,98733.63
2018-01-14T03:21:00.059Z,98742.94
2018-01-14T03:21:31.639Z,98741.66
2018-01-14T03:22:03.214Z,98743.79
2018-01-14T03:22:34.818Z,98745.50
2018-01-14T03:23:06.391Z,98743.82
2018-01-14T03:23:37.966Z,98742.09
2018-01-14T03:24:09.544Z,98739.95
2018-01-14T03:24:41.122Z,98742.09
2018-01-14T03:25:12.699Z,98747.62
2018-01-14T03:25:44.314Z,98749.33
2018-01-14T03:26:15.900Z,98746.77
2018-01-14T03:26:47.475Z,98745.45
2018-01-14T03:27:19.055Z,98745.92
2018-01-14T03:27:50.635Z,98751.00
2018-01-14T03:28:22.220Z,98745.92
2018-01-14T03:28:53.807Z,98746.80
2018-01-14T03:29:25.394Z,98744.67
2018-01-14T03:29:56.978Z,98716.34
2018-01-14T03:30:28.559Z,98748.08
2018-01-14T03:31:00.175Z,98750.25
2018-01-14T03:31:31.756Z,98742.62
2018-01-14T03:32:03.334Z,98748.16
2018-01-14T03:32:34.906Z,98750.28
2018-01-14T03:33:06.483Z,98747.69
2018-01-14T03:33:38.058Z,98749.00
2018-01-14T03:34:09.842Z,98747.27
2018-01-14T03:34:41.499Z,98743.44
2018-01-14T03:35:13.075Z,98745.14
2018-01-14T03:35:44.686Z,98738.67
2018-01-14T03:36:16.295Z,98744.61
2018-01-14T03:36:47.870Z,98741.23
2018-01-14T03:37:19.442Z,98747.62
2018-01-14T03:37:51.024Z,98750.28
2018-01-14T03:38:22.602Z,98735.11
2018-01-14T03:38:54.183Z,98749.11
2018-01-14T03:39:25.763Z,98746.94
2018-01-14T03:39:57.343Z,98746.94
2018-01-14T03:40:28.923Z,98742.26
2018-01-14T03:41:00.495Z,98752.48
2018-01-14T03:41:32.103Z,98744.39
2018-01-14T03:42:03.678Z,98746.55
2018-01-14T03:42:35.251Z,98754.64
2018-01-14T03:43:06.839Z,98749.50
2018-01-14T03:43:38.423Z,98745.70
2018-01-14T03:44:10.003Z,98744.84
2018-01-14T03:44:41.585Z,98743.14
2018-01-14T03:45:13.163Z,98746.16
2018-01-14T03:45:44.742Z,98750.02
2018-01-14T03:46:16.355Z,98747.47
2018-01-14T03:46:47.930Z,98742.81
2018-01-14T03:47:19.543Z,98743.20
2018-01-14T03:47:51.127Z,98750.02
2018-01-14T03:48:22.734Z,98745.77
2018-01-14T03:48:54.310Z,98742.81
2018-01-14T03:49:25.887Z,98748.32
2018-01-14T03:49:57.466Z,98742.78
2018-01-14T03:50:29.039Z,98740.66
2018-01-14T03:51:00.619Z,98747.89
2018-01-14T03:51:32.199Z,98745.34
2018-01-14T03:52:03.774Z,98742.36
2018-01-14T03:52:35.382Z,98747.01
2018-01-14T03:53:06.955Z,98747.44
2018-01-14T03:53:38.526Z,98743.60
2018-01-14T03:54:10.167Z,98747.47
2018-01-14T03:54:41.747Z,98747.44
2018-01-14T03:55:13.324Z,98748.71
2018-01-14T03:55:44.915Z,98741.86
2018-01-14T03:56:16.491Z,98744.81
2018-01-14T03:56:48.067Z,98746.09
2018-01-14T03:57:19.647Z,98744.81
2018-01-14T03:57:51.222Z,98745.23
2018-01-14T03:58:22.803Z,98746.91
2018-01-14T03:58:54.379Z,98746.91
2018-01-14T03:59:25.954Z,98752.02
2018-01-14T03:59:57.535Z,98748.19
2018-01-14T04:00:29.115Z,98748.61
2018-01-14T04:01:00.696Z,98749.89
2018-01-14T04:01:32.274Z,98747.77
2018-01-14T04:02:03.860Z,98741.80
2018-01-14T04:02:35.434Z,98749.86
2018-01-14T04:03:07.006Z,98745.59
2018-01-14T04:03:38.618Z,98749.47
2018-01-14T04:04:10.191Z,98744.78
2018-01-14T04:04:41.807Z,98748.58
2018-01-14T04:05:13.387Z,98751.98
2018-01-14T04:05:44.964Z,98747.30
2018-01-14T04:06:16.543Z,98751.95
2018-01-14T04:06:48.174Z,98749.82
2018-01-14T04:07:19.758Z,98748.02
2018-01-14T04:07:51.335Z,98745.45
2018-01-14T04:08:22.919Z,98746.27
2018-01-14T04:08:54.498Z,98745.42
2018-01-14T04:09:26.080Z,98748.38
2018-01-14T04:09:57.694Z,98749.61
2018-01-14T04:10:29.271Z,98748.27
2018-01-14T04:11:00.871Z,98745.67
2018-01-14T04:11:32.454Z,98746.48
2018-01-14T04:12:04.027Z,98753.27
2018-01-14T04:12:35.611Z,98747.72
2018-01-14T04:13:07.222Z,98749.39
2018-01-14T04:13:38.799Z,98751.52
2018-01-14T04:14:10.406Z,98753.11
2018-01-14T04:14:41.986Z,98748.42
2018-01-14T04:15:13.575Z,98748.03
2018-01-14T04:15:45.174Z,98741.64
2018-01-14T04:16:16.751Z,98752.26
2018-01-14T04:16:48.359Z,98748.00
2018-01-14T04:17:19.939Z,98751.83
2018-01-14T04:17:51.519Z,98743.73
2018-01-14T04:18:23.094Z,98752.17
2018-01-14T04:18:54.679Z,98751.36
2018-01-14T04:19:26.267Z,98755.62
2018-01-14T04:19:57.846Z,98751.83
2018-01-14T04:20:29.419Z,98752.26
2018-01-14T04:21:01.027Z,98757.41
2018-01-14T04:21:32.607Z,98752.77
2018-01-14T04:22:04.187Z,98756.17
2018-01-14T04:22:35.771Z,98754.05
2018-01-14T04:23:07.351Z,98757.02
2018-01-14T04:23:38.930Z,98751.56
2018-01-14T04:24:10.514Z,98754.97
2018-01-14T04:24:42.135Z,98756.67
2018-01-14T04:25:13.711Z,98750.28
2018-01-14T04:25:45.291Z,98753.77
2018-01-14T04:26:16.866Z,98754.62
2018-01-14T04:26:48.443Z,98754.62
2018-01-14T04:27:20.022Z,98755.05
2018-01-14T04:27:51.603Z,98755.11
2018-01-14T04:28:23.183Z,98752.56
2018-01-14T04:28:54.763Z,98754.73
2018-01-14T04:29:26.338Z,98758.56
2018-01-14T04:29:57.919Z,98758.13
2018-01-14T04:30:29.497Z,98761.58
2018-01-14T04:31:01.076Z,98762.01
2018-01-14T04:31:32.655Z,98756.93
2018-01-14T04:32:04.235Z,98759.88
2018-01-14T04:32:35.815Z,98757.35
2018-01-14T04:33:07.394Z,98762.08
2018-01-14T04:33:38.972Z,98756.11
2018-01-14T04:34:10.553Z,98758.27
2018-01-14T04:34:42.175Z,98755.72
2018-01-14T04:35:13.755Z,98758.27
2018-01-14T04:35:45.338Z,98754.05
2018-01-14T04:36:16.918Z,98753.20
2018-01-14T04:36:48.494Z,98753.20
2018-01-14T04:37:20.087Z,98750.25
2018-01-14T04:37:51.707Z,98757.85
2018-01-14T04:38:23.282Z,98754.51
2018-01-14T04:38:54.862Z,98757.49
2018-01-14T04:39:26.437Z,98760.93
2018-01-14T04:39:58.046Z,98766.90
2018-01-14T04:40:29.658Z,98769.00
2018-01-14T04:41:01.235Z,98764.27
2018-01-14T04:41:32.810Z,98766.44
2018-01-14T04:42:04.411Z,98767.72
2018-01-14T04:42:35.990Z,98767.72
2018-01-14T04:43:07.562Z,98762.11
2018-01-14T04:43:39.134Z,98768.08
2018-01-14T04:44:10.706Z,98762.97
2018-01-14T04:44:42.283Z,98767.69
2018-01-14T04:45:13.868Z,98762.14
2018-01-14T04:45:45.474Z,98765.16
2018-01-14T04:46:17.058Z,98754.12
2018-01-14T04:46:48.630Z,98757.95
2018-01-14T04:47:20.242Z,98756.28
2018-01-14T04:47:51.823Z,98758.41
2018-01-14T04:48:23.403Z,98757.56
2018-01-14T04:48:54.982Z,98761.85
2018-01-14T04:49:26.563Z,98758.91
2018-01-14T04:49:58.143Z,98758.91
2018-01-14T04:50:29.763Z,98758.05
2018-01-14T04:51:01.343Z,98762.31
2018-01-14T04:51:33.016Z,98759.75
2018-01-14T04:52:04.590Z,98764.47
2018-01-14T04:52:36.175Z,98764.05
2018-01-14T04:53:07.759Z,98765.39
2018-01-14T04:53:39.343Z,98760.28
2018-01-14T04:54:11.103Z,98760.70
2018-01-14T04:54:42.683Z,98759.03
2018-01-14T04:55:14.263Z,98759.88
2018-01-14T04:55:45.875Z,98756.48
2018-01-14T04:56:17.457Z,98760.73
2018-01-14T04:56:49.030Z,98762.44
2018-01-14T04:57:20.638Z,98755.62
2018-01-14T04:57:52.219Z,98756.05
2018-01-14T04:58:23.794Z,98757.33
2018-01-14T04:58:55.375Z,98753.07
2018-01-14T04:59:26.954Z,98753.49
2018-01-14T04:59:58.535Z,98750.94
2018-01-14T05:00:30.106Z,98758.18
2018-01-14T05:01:01.745Z,98755.20
2018-01-14T05:01:33.331Z,98747.14
2018-01-14T05:02:04.911Z,98756.94
2018-01-14T05:02:36.486Z,98751.83
2018-01-14T05:03:08.067Z,98751.82
2018-01-14T05:03:39.638Z,98754.38
2018-01-14T05:04:11.223Z,98753.92
2018-01-14T05:04:42.810Z,98759.48
2018-01-14T05:05:14.402Z,98753.49
2018-01-14T05:05:45.979Z,98746.68
2018-01-14T05:06:17.611Z,98752.61
2018-01-14T05:06:49.192Z,98753.86
2018-01-14T05:07:20.766Z,98748.35
2018-01-14T05:07:52.347Z,98747.50
2018-01-14T05:08:23.922Z,98749.63
2018-01-14T05:08:55.499Z,98753.04
2018-01-14T05:09:27.071Z,98750.05
2018-01-14T05:09:58.642Z,98756.87
2018-01-14T05:10:30.219Z,98753.04
2018-01-14T05:11:01.860Z,98753.89
2018-01-14T05:11:33.407Z,98750.91
2018-01-14T05:12:04.990Z,98759.00
2018-01-14T05:12:36.563Z,98757.30
2018-01-14T05:13:08.143Z,98763.26
2018-01-14T05:13:39.726Z,98753.89
2018-01-14T05:14:11.384Z,98757.69
2018-01-14T05:14:42.959Z,98750.45
2018-01-14T05:15:14.539Z,98752.58
2018-01-14T05:15:46.110Z,98750.42
2018-01-14T05:16:17.687Z,98756.38
2018-01-14T05:16:49.267Z,98753.40
2018-01-14T05:17:20.846Z,98752.97
2018-01-14T05:17:52.427Z,98752.97
2018-01-14T05:18:24.051Z,98751.27
2018-01-14T05:18:55.629Z,98753.40
2018-01-14T05:19:27.202Z,98754.67
2018-01-14T05:19:58.778Z,98755.92
2018-01-14T05:20:30.363Z,98756.34
2018-01-14T05:21:01.939Z,98755.49
2018-01-14T05:21:33.522Z,98755.53
2018-01-14T05:22:05.097Z,98757.66
2018-01-14T05:22:36.675Z,98752.55
2018-01-14T05:23:08.250Z,98753.83
2018-01-14T05:23:40.054Z,98754.25
2018-01-14T05:24:11.730Z,98751.70
2018-01-14T05:24:43.306Z,98754.28
2018-01-14T05:25:14.887Z,98753.86
2018-01-14T05:25:46.471Z,98754.28
2018-01-14T05:26:18.047Z,98754.70
2018-01-14T05:26:49.627Z,98749.59
2018-01-14T05:27:21.202Z,98752.19
2018-01-14T05:27:52.779Z,98753.89
2018-01-14T05:28:24.358Z,98754.31
2018-01-14T05:28:55.979Z,98754.34
2018-01-14T05:29:27.552Z,98750.94
2018-01-14T05:29:59.126Z,98754.34
2018-01-14T05:30:30.708Z,98759.03
2018-01-14T05:31:02.314Z,98754.41
2018-01-14T05:31:33.891Z,98752.28
2018-01-14T05:32:05.471Z,98756.11
2018-01-14T05:32:37.047Z,98751.43
2018-01-14T05:33:08.622Z,98755.26
2018-01-14T05:33:40.198Z,98756.99
2018-01-14T05:34:12.347Z,98756.99
2018-01-14T05:34:43.954Z,98753.56
2018-01-14T05:35:15.535Z,98753.16
2018-01-14T05:35:47.124Z,98751.88
2018-01-14T05:36:18.698Z,98755.30
2018-01-14T05:36:50.270Z,98759.16
2018-01-14T05:37:21.846Z,98759.13
2018-01-14T05:37:53.422Z,98756.57
2018-01-14T05:38:25.035Z,98763.78
2018-01-14T05:38:56.859Z,98765.87
2018-01-14T05:39:28.434Z,98765.81
2018-01-14T05:40:00.063Z,98764.53
2018-01-14T05:40:31.639Z,98767.09
2018-01-14T05:41:03.210Z,98766.63
2018-01-14T05:41:34.791Z,98770.05
2018-01-14T05:42:06.369Z,98764.08
2018-01-14T05:42:37.942Z,98766.63
2018-01-14T05:43:09.519Z,98768.34
2018-01-14T05:43:41.103Z,98770.86
2018-01-14T05:44:12.683Z,98768.27
2018-01-14T05:44:44.255Z,98762.34
2018-01-14T05:45:15.862Z,98773.38
2018-01-14T05:45:47.438Z,98766.14
2018-01-14T05:46:19.010Z,98766.14
2018-01-14T05:46:50.591Z,98767.39
2018-01-14T05:47:22.175Z,98766.54
2018-01-14T05:47:53.759Z,98765.23
2018-01-14T05:48:25.335Z,98765.23
2018-01-14T05:48:56.915Z,98764.77
2018-01-14T05:49:28.499Z,98769.03
2018-01-14T05:50:00.090Z,98762.21
2018-01-14T05:50:31.710Z,98764.77
2018-01-14T05:51:03.291Z,98764.73
2018-01-14T05:51:34.866Z,98769.00
2018-01-14T05:52:06.439Z,98763.00
2018-01-14T05:52:38.019Z,98763.81
2018-01-14T05:53:09.599Z,98764.59
2018-01-14T05:53:41.179Z,98765.38
2018-01-14T05:54:12.758Z,98765.41
2018-01-14T05:54:44.334Z,98767.13
2018-01-14T05:55:15.906Z,98772.59
2018-01-14T05:55:47.522Z,98759.37
2018-01-14T05:56:19.102Z,98766.63
2018-01-14T05:56:50.678Z,98762.36
2018-01-14T05:57:22.311Z,98767.02
2018-01-14T05:57:53.855Z,98762.72
2018-01-14T05:58:25.433Z,98763.96
2018-01-14T05:58:57.090Z,98764.39
2018-01-14T05:59:28.698Z,98762.25
2018-01-14T06:00:00.337Z,98764.38
2018-01-14T06:00:31.882Z,98764.81
2018-01-14T06:01:03.462Z,98764.00
2018-01-14T06:01:35.051Z,98767.87
2018-01-14T06:02:06.627Z,98767.94
2018-01-14T06:02:38.234Z,98769.64
2018-01-14T06:03:09.811Z,98771.31
2018-01-14T06:03:41.383Z,98774.75
2018-01-14T06:04:12.970Z,98778.17
2018-01-14T06:04:44.546Z,98777.34
2018-01-14T06:05:16.127Z,98771.77
2018-01-14T06:05:47.707Z,98775.14
2018-01-14T06:06:19.282Z,98774.75
2018-01-14T06:06:50.891Z,98768.36
2018-01-14T06:07:22.514Z,98769.22
2018-01-14T06:07:54.099Z,98766.66
2018-01-14T06:08:25.679Z,98766.66
2018-01-14T06:08:57.262Z,98770.50
2018-01-14T06:09:28.841Z,98767.13
2018-01-14T06:10:00.419Z,98771.34
2018-01-14T06:10:31.994Z,98768.83
2018-01-14T06:11:03.575Z,98767.13